createdAt,value
2023-11-10T08:54:04.610Z,1249.00
2023-11-10T08:55:02.287Z,1248.00
2023-11-10T08:56:02.032Z,1260.00
2023-11-10T08:57:02.473Z,1297.00
2023-11-10T08:58:02.362Z,1401.00
2023-11-10T08:59:01.307Z,1435.00
2023-11-10T09:00:01.131Z,1450.00
2023-11-10T09:01:00.819Z,1477.00
2023-11-10T09:02:00.539Z,1555.00
2023-11-10T09:03:00.430Z,1590.00
2023-11-10T09:04:11.765Z,1618.00
2023-11-10T09:05:01.242Z,1688.00
2023-11-10T09:05:59.581Z,1717.00
2023-11-10T09:06:59.516Z,1812.00
2023-11-10T09:07:59.094Z,1841.00
2023-11-10T09:08:58.803Z,1867.00
2023-11-10T09:09:58.996Z,1896.00
2023-11-10T09:10:58.203Z,2011.00
2023-11-10T09:11:57.944Z,2003.00
2023-11-10T09:12:57.690Z,1712.00
2023-11-10T09:13:57.456Z,1369.00
2023-11-10T09:15:00.958Z,1324.00
2023-11-10T09:16:02.135Z,1405.00
2023-11-10T09:16:57.737Z,1449.00
2023-11-10T09:17:56.446Z,1470.00
2023-11-10T09:18:56.113Z,1482.00
2023-11-10T09:19:55.860Z,1495.00
2023-11-10T09:20:55.558Z,1537.00
2023-11-10T09:21:55.310Z,1566.00
2023-11-10T09:22:55.124Z,1616.00
2023-11-10T09:23:59.212Z,1668.00
2023-11-10T09:24:54.527Z,1686.00
2023-11-10T09:25:54.200Z,1787.00
2023-11-10T09:26:53.996Z,1805.00
2023-11-10T09:27:53.724Z,1820.00
2023-11-10T09:28:53.481Z,1844.00
2023-11-10T09:29:53.167Z,1954.00
2023-11-10T09:30:54.121Z,1923.00
2023-11-10T09:31:52.671Z,1887.00
2023-11-10T09:32:52.402Z,2048.00
2023-11-10T09:33:52.124Z,1978.00
2023-11-10T09:34:51.787Z,2142.00
2023-11-10T09:35:51.540Z,2172.00
2023-11-10T09:36:51.306Z,2313.00
2023-11-10T09:37:51.071Z,2316.00
2023-11-10T09:38:50.702Z,2318.00
2023-11-10T09:39:50.451Z,2329.00
2023-11-10T09:40:50.157Z,2459.00
2023-11-10T09:41:49.865Z,2485.00
2023-11-10T09:42:49.657Z,2495.00
2023-11-10T09:43:49.321Z,2511.00
2023-11-10T09:44:51.253Z,2531.00
2023-11-10T09:45:48.821Z,2566.00
2023-11-10T09:46:48.591Z,2631.00
2023-11-10T09:47:48.259Z,2657.00
2023-11-10T09:48:47.941Z,2683.00
2023-11-10T09:49:47.597Z,2772.00
2023-11-10T09:50:47.460Z,2815.00
2023-11-10T09:51:47.176Z,2818.00
2023-11-10T09:52:46.921Z,2826.00
2023-11-10T09:53:46.768Z,2865.00
2023-11-10T09:54:46.427Z,2868.00
2023-11-10T09:55:46.218Z,1394.00
2023-11-10T09:56:46.123Z,932.00
2023-11-10T09:57:46.016Z,702.00
